This is the latest recevied weather packets stored in our database for station/object N4QEP-13. If no packets are shown the sender has not sent any weather packets the latest 10 day(s).
| Time | Temp. | Humidity | Pressure | Rain* | Wind** | Luminosity | Snow |
|---|---|---|---|---|---|---|---|
| 1777576580 | 25.56° C | 62% | 1012.5 hPa | 0 mm | - | - | - |
| 1777575654 | 25° C | 62% | 1012.5 hPa | 0 mm | - | - | - |
| 1777574721 | 24.44° C | 66% | 1012.7 hPa | 0 mm | - | - | - |
| 1777573820 | 23.89° C | 68% | 1012.8 hPa | 0 mm | - | - | - |
| 1777572917 | 22.78° C | 73% | 1012.7 hPa | 0 mm | - | - | - |
| 1777572019 | 22.78° C | 72% | 1012.6 hPa | 0 mm | - | - | - |
| 1777571116 | 23.33° C | 70% | 1012.9 hPa | 0 mm | - | - | - |
| 1777570216 | 23.33° C | 69% | 1013.2 hPa | 0 mm | - | - | - |
| 1777569346 | 23.89° C | 68% | 1013.3 hPa | 0 mm | - | - | - |
| 1777568448 | 24.44° C | 66% | 1013.2 hPa | 0 mm | - | - | - |
| 1777567543 | 24.44° C | 66% | 1013.2 hPa | 0 mm | - | - | - |
| 1777566643 | 25° C | 65% | 1013.4 hPa | 0 mm | - | - | - |
| 1777565740 | 23.89° C | 65% | 1013.6 hPa | 0 mm | - | - | - |
| 1777564838 | 23.33° C | 67% | 1013.7 hPa | 0 mm | - | - | - |
| 1777563914 | 23.33° C | 67% | 1013.8 hPa | 0 mm | - | - | - |
| 1777563006 | 23.33° C | 67% | 1013.9 hPa | 0 mm | - | - | - |
| 1777562102 | 22.78° C | 69% | 1014 hPa | 0 mm | - | - | - |
| 1777561261 | 22.78° C | 69% | 1014.1 hPa | 0 mm | - | - | - |
| 1777560362 | 22.78° C | 70% | 1014 hPa | 0 mm | - | - | - |
| 1777559456 | 21.67° C | 71% | 1013.9 hPa | 0 mm | - | - | - |
| 1777558552 | 21.67° C | 72% | 1013.8 hPa | 0 mm | - | - | - |
| 1777557652 | 21.11° C | 74% | 1013.8 hPa | 0 mm | - | - | - |
| 1777556746 | 20.56° C | 76% | 1013.6 hPa | 0 mm | - | - | - |
| 1777555858 | 20° C | 76% | 1013.7 hPa | 0 mm | - | - | - |
| 1777554913 | 20° C | 77% | 1013.7 hPa | 0 mm | - | - | - |
* Rain latest hour (hover to see other rain measurements)
** Current wind speed in m/s (hover to see current wind gust speed)